Pagina principale
METAR-TAF:

METAR-TAF

Aeroporti :

Aeroporto di Enfida-Hammamet

Hammamet, Tunisia

latitudine: 36-04-34N, longitudine: 10-26-19E, altezza: 6 m

Osservazione

Il bollettino è stato emesso 44 minuti fa, alle 02:00 UTC
Vento 5 kt da nord/nord-ovest
Temperature 18°C
Umidità 100%
Pressione 1008 hPa
Visibilità 10 km o più
nessuna nube inferiore a 1500 m e nessun cumulonembo

METAR: DTNH 190200Z AUTO 34005KT CAVOK 18/18 Q1008

Ora: 03:44 (02:44 UTC)

Previsione

Il bollettino è stato emesso 3 ore e 44 minuti fa, alle 23:00 UTC
Previsione valida dal 19 alle 00 UTC al 19 alle 24 UTC
Vento 3 kt da direzioni variabili
Visibilità 10 km o più
Poco nuvoloso ad un'altezza di 2600 ft
Probabilità 30%
dal 19 alle 03 UTC al 19 alle 07 UTC
Visibilità: 4000 m
foschia

TAF: DTNH 182300Z 1900/1924 VRB03KT 9999 FEW026 PROB30 1903/1907 4000 BR

Osservazioni e previsioni meteorologiche di più di 4000 aeroporti (messaggi METAR e TAF).

Le stazioni disponibili sono rappresentate dai dischi gialli e rossi sulla carta.

Puntare il mouse per vedere il nome della stazione.

Clicca sopra per visualizzare le osservazioni e previsioni meteorologiche.

Per cambiare la mappa : fare clic sui pulsanti verdi con una croce nera per ingrandire, il pulsante verde con un trattino per diminuire, o sulla freccia verde per le mappe adiacenti.


METAR-TAF: